createdAt,value
2019-03-24T00:02:12.426Z,82.00
2019-03-24T00:04:41.262Z,82.60
2019-03-24T00:07:10.096Z,82.80
2019-03-24T00:09:39.898Z,83.00
2019-03-24T00:12:08.721Z,82.90
2019-03-24T00:14:37.576Z,83.20
2019-03-24T00:17:06.340Z,83.80
2019-03-24T00:19:35.193Z,83.90
2019-03-24T00:22:04.470Z,83.70
2019-03-24T00:24:33.374Z,84.60
2019-03-24T00:27:02.198Z,84.40
2019-03-24T00:29:31.050Z,84.90
2019-03-24T00:32:00.031Z,85.00
2019-03-24T00:34:28.830Z,85.20
2019-03-24T00:36:57.702Z,85.40
2019-03-24T00:39:26.964Z,85.00
2019-03-24T00:41:55.694Z,85.10
2019-03-24T00:44:24.712Z,84.90
2019-03-24T00:46:53.498Z,85.50
2019-03-24T00:49:22.389Z,86.30
2019-03-24T00:51:51.153Z,86.50
2019-03-24T00:54:19.981Z,86.40
2019-03-24T00:56:48.749Z,86.90
2019-03-24T00:59:17.586Z,87.30
2019-03-24T01:01:46.446Z,87.60
2019-03-24T01:04:15.437Z,88.40
2019-03-24T01:06:44.192Z,88.60
2019-03-24T01:09:13.023Z,88.70
2019-03-24T01:11:41.840Z,89.20
2019-03-24T01:14:10.776Z,89.50
2019-03-24T01:16:39.855Z,89.40
2019-03-24T01:19:08.633Z,89.20
2019-03-24T01:21:37.479Z,89.00
2019-03-24T01:24:06.245Z,89.60
2019-03-24T01:26:35.032Z,89.50
2019-03-24T01:29:03.820Z,89.40
2019-03-24T01:31:32.582Z,89.20
2019-03-24T01:34:01.410Z,89.50
2019-03-24T01:36:30.393Z,90.20
2019-03-24T01:38:59.212Z,89.90
2019-03-24T01:41:28.522Z,90.10
2019-03-24T01:43:57.268Z,89.70
2019-03-24T01:46:26.416Z,90.10
2019-03-24T01:48:55.311Z,90.50
2019-03-24T01:51:24.204Z,90.60
2019-03-24T01:53:52.914Z,90.50
2019-03-24T01:56:21.700Z,90.50
2019-03-24T01:58:50.454Z,90.50
2019-03-24T02:01:19.192Z,90.80
2019-03-24T02:03:48.057Z,91.00
2019-03-24T02:06:16.834Z,90.80
2019-03-24T02:08:45.627Z,90.90
2019-03-24T02:11:14.423Z,90.90
2019-03-24T02:13:43.319Z,91.00
2019-03-24T02:16:12.119Z,90.80
2019-03-24T02:18:40.898Z,90.80
2019-03-24T02:21:10.825Z,90.90
2019-03-24T02:23:39.731Z,91.20
2019-03-24T02:26:08.550Z,91.10
2019-03-24T02:28:37.375Z,91.20
2019-03-24T02:31:06.150Z,91.20
2019-03-24T02:33:36.076Z,91.00
2019-03-24T02:36:04.921Z,90.90
2019-03-24T02:38:34.031Z,91.00
2019-03-24T02:41:03.145Z,91.20
2019-03-24T02:43:31.942Z,91.20
2019-03-24T02:46:01.333Z,91.10
2019-03-24T02:48:30.237Z,91.20
2019-03-24T02:50:58.963Z,91.50
2019-03-24T02:53:27.802Z,91.20
2019-03-24T02:55:56.542Z,91.20
2019-03-24T02:58:25.301Z,91.30
2019-03-24T03:00:55.177Z,91.20
2019-03-24T03:03:24.039Z,91.50
2019-03-24T03:05:52.783Z,91.50
2019-03-24T03:08:21.844Z,91.60
2019-03-24T03:10:50.674Z,91.60
2019-03-24T03:13:20.395Z,91.50
2019-03-24T03:15:51.926Z,91.70
2019-03-24T03:18:20.847Z,91.80
2019-03-24T03:20:49.893Z,91.90
2019-03-24T03:23:18.795Z,91.80
2019-03-24T03:25:47.621Z,92.00
2019-03-24T03:28:16.610Z,91.70
2019-03-24T03:30:45.475Z,92.00
2019-03-24T03:33:14.275Z,91.90
2019-03-24T03:35:43.294Z,92.00
2019-03-24T03:38:12.150Z,92.20
2019-03-24T03:40:41.082Z,92.40
2019-03-24T03:43:09.886Z,92.30
2019-03-24T03:45:39.418Z,92.20
2019-03-24T03:48:08.559Z,92.40
2019-03-24T03:50:37.419Z,92.10
2019-03-24T03:53:06.227Z,92.10
2019-03-24T03:55:35.064Z,92.00
2019-03-24T03:58:03.919Z,92.60
2019-03-24T04:00:34.537Z,92.60
2019-03-24T04:03:04.263Z,92.50
2019-03-24T04:05:33.117Z,92.60
2019-03-24T04:08:02.187Z,92.70
2019-03-24T04:10:31.000Z,92.90
2019-03-24T04:12:59.717Z,92.90
2019-03-24T04:15:28.611Z,92.70
2019-03-24T04:17:57.421Z,92.90
2019-03-24T04:20:26.274Z,93.10
2019-03-24T04:22:55.086Z,93.20
2019-03-24T04:25:23.974Z,93.00
2019-03-24T04:27:52.828Z,93.20
2019-03-24T04:30:21.696Z,93.30
2019-03-24T04:32:50.600Z,93.30
2019-03-24T04:35:19.363Z,93.20
2019-03-24T04:37:48.168Z,93.40
2019-03-24T04:40:16.931Z,93.50
2019-03-24T04:42:46.155Z,93.60
2019-03-24T04:45:14.916Z,93.70
2019-03-24T04:47:43.845Z,93.60
2019-03-24T04:50:14.738Z,93.90
2019-03-24T04:52:43.551Z,93.80
2019-03-24T04:55:12.608Z,94.10
2019-03-24T04:57:41.415Z,94.40
2019-03-24T05:00:11.556Z,94.40
2019-03-24T05:02:40.436Z,94.60
2019-03-24T05:05:10.047Z,94.80
2019-03-24T05:07:39.881Z,94.70
2019-03-24T05:10:26.467Z,94.80
2019-03-24T05:12:55.205Z,95.00
2019-03-24T05:15:24.009Z,94.90
2019-03-24T05:17:52.834Z,95.00
2019-03-24T05:20:21.595Z,95.10
2019-03-24T05:22:50.968Z,95.40
2019-03-24T05:25:19.735Z,95.60
2019-03-24T05:27:49.898Z,95.80
2019-03-24T05:30:18.624Z,95.80
2019-03-24T05:32:47.430Z,95.70
2019-03-24T05:35:16.210Z,95.70
2019-03-24T05:37:44.961Z,95.80
2019-03-24T05:40:13.797Z,95.70
2019-03-24T05:42:42.642Z,96.20
2019-03-24T05:45:11.475Z,96.00
2019-03-24T05:47:40.311Z,96.00
2019-03-24T05:50:09.846Z,96.00
2019-03-24T05:52:38.579Z,95.80
2019-03-24T05:55:07.536Z,95.80
2019-03-24T05:57:37.465Z,95.50
2019-03-24T06:00:06.691Z,95.20
2019-03-24T06:02:35.542Z,95.20
2019-03-24T06:05:05.422Z,95.10
2019-03-24T06:07:34.327Z,94.80
2019-03-24T06:10:03.740Z,94.70
2019-03-24T06:12:32.768Z,94.60
2019-03-24T06:15:01.932Z,94.50
2019-03-24T06:17:31.703Z,94.50
2019-03-24T06:20:00.457Z,94.20
2019-03-24T06:22:29.287Z,93.50
2019-03-24T06:24:58.160Z,93.30
2019-03-24T06:27:27.239Z,93.30
2019-03-24T06:29:56.208Z,93.10
2019-03-24T06:32:25.064Z,93.00
2019-03-24T06:34:55.113Z,92.80
2019-03-24T06:37:23.893Z,92.40
2019-03-24T06:39:52.716Z,92.10
2019-03-24T06:42:21.682Z,91.90
2019-03-24T06:44:50.817Z,91.90
2019-03-24T06:47:19.747Z,91.30
2019-03-24T06:49:49.384Z,91.10
2019-03-24T06:52:18.246Z,91.20
2019-03-24T06:54:47.467Z,91.20
2019-03-24T06:57:17.030Z,91.10
2019-03-24T06:59:46.103Z,90.90
2019-03-24T07:02:15.060Z,90.30
2019-03-24T07:04:44.076Z,90.20
2019-03-24T07:07:13.055Z,89.60
2019-03-24T07:09:41.971Z,88.90
2019-03-24T07:12:11.071Z,87.40
2019-03-24T07:14:58.424Z,87.70
2019-03-24T07:17:27.671Z,87.50
2019-03-24T07:19:56.897Z,86.80
2019-03-24T07:22:25.734Z,87.60
2019-03-24T07:24:54.638Z,86.80
2019-03-24T07:27:23.716Z,87.50
2019-03-24T07:29:52.735Z,87.50
2019-03-24T07:32:21.745Z,86.90
2019-03-24T07:34:50.748Z,84.20
2019-03-24T07:37:19.680Z,83.20
2019-03-24T07:39:48.576Z,82.30
2019-03-24T07:42:17.362Z,82.20
2019-03-24T07:44:46.420Z,81.30
2019-03-24T07:47:15.634Z,80.40
2019-03-24T07:49:44.634Z,81.40
2019-03-24T07:52:13.881Z,81.50
2019-03-24T07:54:42.751Z,81.30
2019-03-24T07:57:11.673Z,80.60
2019-03-24T07:59:40.673Z,80.50
2019-03-24T08:02:09.575Z,78.90
2019-03-24T08:04:38.489Z,77.20
2019-03-24T08:07:07.513Z,76.00
2019-03-24T08:09:37.323Z,75.20
2019-03-24T08:12:06.562Z,75.50
2019-03-24T08:14:35.888Z,72.70
2019-03-24T08:17:05.273Z,72.40
2019-03-24T08:19:34.413Z,72.30
2019-03-24T08:22:03.788Z,72.20
2019-03-24T08:24:32.664Z,73.50
2019-03-24T08:27:02.170Z,71.60
2019-03-24T08:29:31.294Z,71.70
2019-03-24T08:32:00.127Z,71.50
2019-03-24T08:34:28.880Z,70.90
2019-03-24T08:36:57.836Z,70.80
2019-03-24T08:39:26.989Z,70.90
2019-03-24T08:41:57.901Z,70.30
2019-03-24T08:44:27.059Z,70.70
2019-03-24T08:46:56.037Z,70.30
2019-03-24T08:49:24.911Z,73.30
2019-03-24T08:51:53.871Z,72.40
2019-03-24T08:54:23.509Z,72.10
2019-03-24T08:56:52.432Z,71.90
2019-03-24T08:59:21.292Z,72.30
2019-03-24T09:01:50.603Z,71.40
2019-03-24T09:04:22.095Z,71.50
2019-03-24T09:06:51.264Z,71.80
2019-03-24T09:09:20.235Z,71.00
2019-03-24T09:11:49.335Z,70.70
2019-03-24T09:14:18.269Z,70.90
2019-03-24T09:16:47.556Z,69.50
2019-03-24T09:19:16.417Z,69.30
2019-03-24T09:21:45.280Z,67.70
2019-03-24T09:24:15.017Z,67.90
2019-03-24T09:26:43.930Z,67.80
2019-03-24T09:29:14.104Z,67.20
2019-03-24T09:31:43.115Z,66.50
2019-03-24T09:34:12.117Z,66.10
2019-03-24T09:36:41.210Z,65.40
2019-03-24T09:39:10.751Z,64.30
2019-03-24T09:41:40.539Z,64.50
2019-03-24T09:44:10.664Z,63.30
2019-03-24T09:46:39.720Z,63.30
2019-03-24T09:49:08.752Z,62.50
2019-03-24T09:51:37.927Z,61.60
2019-03-24T09:54:06.760Z,61.10
2019-03-24T09:56:36.925Z,60.60
2019-03-24T09:59:06.489Z,60.50
2019-03-24T10:01:37.944Z,59.60
2019-03-24T10:04:18.829Z,60.30
2019-03-24T10:06:50.151Z,59.60
2019-03-24T10:09:22.611Z,59.60
2019-03-24T10:11:55.578Z,58.10
2019-03-24T10:14:25.173Z,57.90
2019-03-24T10:16:55.714Z,57.60
2019-03-24T10:19:24.939Z,56.90
2019-03-24T10:21:55.084Z,57.50
2019-03-24T10:24:25.416Z,56.90
2019-03-24T10:27:01.734Z,57.60
2019-03-24T10:29:38.846Z,57.70
2019-03-24T10:32:09.269Z,57.90
2019-03-24T10:34:38.500Z,58.90
2019-03-24T10:37:09.688Z,58.00
2019-03-24T10:39:38.787Z,56.50
2019-03-24T10:42:09.019Z,55.90
2019-03-24T10:44:42.552Z,55.40
2019-03-24T10:47:11.737Z,55.10
2019-03-24T10:49:42.942Z,54.00
2019-03-24T10:52:12.482Z,51.80
2019-03-24T10:54:41.869Z,53.40
2019-03-24T10:57:11.148Z,51.40
2019-03-24T10:59:41.226Z,51.40
2019-03-24T11:02:10.372Z,51.00
2019-03-24T11:04:39.982Z,51.80
2019-03-24T11:07:08.955Z,51.90
2019-03-24T11:09:37.852Z,50.90
2019-03-24T11:12:06.730Z,50.90
2019-03-24T11:14:37.803Z,51.40
2019-03-24T11:17:08.545Z,52.20
2019-03-24T11:19:38.753Z,53.30
2019-03-24T11:22:07.630Z,51.40
2019-03-24T11:24:36.793Z,52.10
2019-03-24T11:27:05.923Z,51.40
2019-03-24T11:29:35.899Z,51.40
2019-03-24T11:32:05.167Z,50.40
2019-03-24T11:34:34.215Z,50.90
2019-03-24T11:37:03.492Z,50.90
2019-03-24T11:39:32.586Z,50.90
2019-03-24T11:42:01.614Z,49.00
2019-03-24T11:44:30.596Z,49.90
2019-03-24T11:46:59.656Z,50.20
2019-03-24T11:49:28.682Z,50.40
2019-03-24T11:51:57.844Z,49.10
2019-03-24T11:54:26.974Z,48.20
2019-03-24T11:56:56.412Z,48.80
2019-03-24T11:59:25.594Z,49.80
2019-03-24T12:01:54.557Z,49.10
2019-03-24T12:04:23.719Z,47.70
2019-03-24T12:06:52.723Z,47.80
2019-03-24T12:09:22.062Z,47.40
2019-03-24T12:11:52.037Z,46.10
2019-03-24T12:14:21.542Z,44.10
2019-03-24T12:16:50.767Z,44.50
2019-03-24T12:19:20.084Z,44.80
2019-03-24T12:21:49.149Z,44.20
2019-03-24T12:24:18.346Z,44.60
2019-03-24T12:26:47.546Z,44.40
2019-03-24T12:29:16.859Z,44.90
2019-03-24T12:31:45.932Z,42.10
2019-03-24T12:34:15.101Z,42.00
2019-03-24T12:36:44.189Z,41.70
2019-03-24T12:39:13.828Z,43.40
2019-03-24T12:41:42.755Z,42.20
2019-03-24T12:44:11.950Z,40.50
2019-03-24T12:46:41.291Z,40.80
2019-03-24T12:49:17.116Z,40.60
2019-03-24T12:51:46.207Z,41.30
2019-03-24T12:54:15.991Z,41.50
2019-03-24T12:56:45.115Z,41.70
2019-03-24T12:59:14.518Z,42.40
2019-03-24T13:01:43.524Z,43.40
2019-03-24T13:04:12.586Z,43.60
2019-03-24T13:06:41.466Z,43.00
2019-03-24T13:09:11.386Z,43.30
2019-03-24T13:11:40.404Z,43.50
2019-03-24T13:14:09.421Z,44.00
2019-03-24T13:16:38.438Z,43.20
2019-03-24T13:19:07.369Z,42.70
2019-03-24T13:21:36.334Z,42.60
2019-03-24T13:24:05.427Z,41.50
2019-03-24T13:26:34.484Z,41.80
2019-03-24T13:29:04.707Z,42.00
2019-03-24T13:31:33.706Z,41.30
2019-03-24T13:34:03.111Z,41.50
2019-03-24T13:36:32.058Z,41.10
2019-03-24T13:39:01.151Z,41.80
2019-03-24T13:41:30.425Z,42.50
2019-03-24T13:43:59.375Z,43.10
2019-03-24T13:46:28.319Z,42.40
2019-03-24T13:48:57.508Z,41.80
2019-03-24T13:51:26.375Z,42.50
2019-03-24T13:53:55.335Z,42.50
2019-03-24T13:56:24.577Z,42.50
2019-03-24T13:58:53.663Z,42.20
2019-03-24T14:01:22.562Z,42.80
2019-03-24T14:03:51.625Z,42.80
2019-03-24T14:06:20.586Z,43.00
2019-03-24T14:08:49.702Z,43.80
2019-03-24T14:11:18.718Z,44.40
2019-03-24T14:13:47.759Z,44.40
2019-03-24T14:16:16.809Z,44.70
2019-03-24T14:18:45.726Z,44.30
2019-03-24T14:21:14.786Z,44.50
2019-03-24T14:23:43.850Z,45.60
2019-03-24T14:26:13.867Z,43.70
2019-03-24T14:28:43.519Z,43.60
2019-03-24T14:31:12.588Z,42.70
2019-03-24T14:33:43.118Z,42.90
2019-03-24T14:36:12.123Z,43.30
2019-03-24T14:38:41.097Z,42.50
2019-03-24T14:41:10.168Z,43.00
2019-03-24T14:43:40.042Z,43.30
2019-03-24T14:46:09.057Z,43.20
2019-03-24T14:48:37.982Z,43.20
2019-03-24T14:51:07.534Z,43.30
2019-03-24T14:53:36.869Z,43.10
2019-03-24T14:56:05.898Z,42.90
2019-03-24T14:58:34.958Z,43.20
2019-03-24T15:01:03.969Z,43.70
2019-03-24T15:03:32.918Z,43.90
2019-03-24T15:06:01.984Z,43.40
2019-03-24T15:08:30.960Z,44.10
2019-03-24T15:10:59.965Z,44.60
2019-03-24T15:13:28.839Z,44.30
2019-03-24T15:15:57.823Z,44.10
2019-03-24T15:18:27.355Z,44.80
2019-03-24T15:21:05.150Z,46.10
2019-03-24T15:23:27.008Z,45.50
2019-03-24T15:25:56.004Z,46.40
2019-03-24T15:28:25.136Z,47.20
2019-03-24T15:30:54.904Z,47.70
2019-03-24T15:33:23.964Z,47.60
2019-03-24T15:35:53.041Z,46.90
2019-03-24T15:38:22.158Z,46.80
2019-03-24T15:40:51.086Z,46.90
2019-03-24T15:43:19.926Z,46.70
2019-03-24T15:45:48.851Z,47.20
2019-03-24T15:48:18.556Z,46.90
2019-03-24T15:50:47.694Z,46.30
2019-03-24T15:53:16.632Z,45.90
2019-03-24T15:55:45.576Z,45.40
2019-03-24T15:58:14.560Z,44.40
2019-03-24T16:00:48.237Z,44.00
2019-03-24T16:03:17.560Z,44.00
2019-03-24T16:05:46.636Z,44.60
2019-03-24T16:08:15.576Z,44.60
2019-03-24T16:10:44.506Z,44.60
2019-03-24T16:13:13.399Z,44.70
2019-03-24T16:15:42.334Z,45.00
2019-03-24T16:18:11.320Z,45.20
2019-03-24T16:20:40.380Z,45.20
2019-03-24T16:23:09.460Z,45.40
2019-03-24T16:25:38.524Z,46.00
2019-03-24T16:28:07.698Z,46.30
2019-03-24T16:30:36.734Z,46.70
2019-03-24T16:33:06.120Z,46.00
2019-03-24T16:35:35.128Z,46.20
2019-03-24T16:38:04.209Z,46.20
2019-03-24T16:40:33.178Z,46.50
2019-03-24T16:43:02.099Z,46.00
2019-03-24T16:45:31.161Z,46.00
2019-03-24T16:48:00.117Z,45.70
2019-03-24T16:50:28.961Z,46.50
2019-03-24T16:52:57.937Z,46.80
2019-03-24T16:55:26.910Z,46.60
2019-03-24T16:57:55.938Z,46.90
2019-03-24T17:00:24.986Z,46.90
2019-03-24T17:02:54.023Z,45.90
2019-03-24T17:05:23.071Z,45.00
2019-03-24T17:07:52.118Z,44.60
2019-03-24T17:10:21.230Z,45.10
2019-03-24T17:12:51.312Z,45.70
2019-03-24T17:15:20.366Z,46.00
2019-03-24T17:17:49.413Z,45.40
2019-03-24T17:20:18.483Z,45.30
2019-03-24T17:22:47.488Z,45.40
2019-03-24T17:25:16.518Z,46.40
2019-03-24T17:27:45.584Z,47.40
2019-03-24T17:30:15.178Z,47.90
2019-03-24T17:32:44.136Z,47.80
2019-03-24T17:35:13.257Z,48.20
2019-03-24T17:37:42.169Z,48.50
2019-03-24T17:40:12.602Z,48.30
2019-03-24T17:42:41.848Z,48.70
2019-03-24T17:45:11.469Z,48.30
2019-03-24T17:47:40.444Z,48.80
2019-03-24T17:50:11.988Z,49.40
2019-03-24T17:52:40.607Z,50.10
2019-03-24T17:55:09.837Z,50.50
2019-03-24T17:57:38.774Z,50.70
2019-03-24T18:00:11.586Z,51.00
2019-03-24T18:02:40.683Z,51.50
2019-03-24T18:05:10.031Z,51.50
2019-03-24T18:07:39.115Z,51.90
2019-03-24T18:10:10.449Z,52.10
2019-03-24T18:12:39.609Z,52.00
2019-03-24T18:15:09.171Z,52.10
2019-03-24T18:17:38.383Z,52.30
2019-03-24T18:20:08.546Z,52.50
2019-03-24T18:22:37.841Z,52.70
2019-03-24T18:25:08.839Z,52.10
2019-03-24T18:27:37.911Z,51.30
2019-03-24T18:30:09.040Z,51.30
2019-03-24T18:32:38.583Z,51.40
2019-03-24T18:35:08.656Z,51.90
2019-03-24T18:37:38.090Z,52.10
2019-03-24T18:40:08.966Z,52.30
2019-03-24T18:42:38.511Z,52.50
2019-03-24T18:45:09.171Z,52.50
2019-03-24T18:47:39.447Z,52.20
2019-03-24T18:50:09.501Z,52.70
2019-03-24T18:52:38.644Z,52.70
2019-03-24T18:55:09.182Z,52.60
2019-03-24T18:57:38.223Z,53.10
2019-03-24T19:00:07.736Z,52.90
2019-03-24T19:02:36.956Z,52.90
2019-03-24T19:05:06.638Z,53.10
2019-03-24T19:07:35.703Z,53.40
2019-03-24T19:10:05.594Z,53.00
2019-03-24T19:12:34.911Z,53.00
2019-03-24T19:15:04.419Z,52.90
2019-03-24T19:17:33.642Z,53.30
2019-03-24T19:20:02.699Z,52.60
2019-03-24T19:22:33.733Z,52.70
2019-03-24T19:25:02.833Z,51.40
2019-03-24T19:27:31.927Z,52.20
2019-03-24T19:30:01.035Z,52.10
2019-03-24T19:32:31.135Z,51.90
2019-03-24T19:35:00.419Z,51.70
2019-03-24T19:37:29.791Z,51.00
2019-03-24T19:39:58.993Z,50.60
2019-03-24T19:42:28.177Z,49.30
2019-03-24T19:44:57.367Z,49.20
2019-03-24T19:48:19.604Z,48.70
2019-03-24T19:55:03.172Z,47.60
2019-03-24T19:57:32.222Z,47.00
2019-03-24T20:00:01.369Z,45.90
2019-03-24T20:02:30.484Z,46.10
2019-03-24T20:05:00.366Z,44.40
2019-03-24T20:07:29.616Z,44.40
2019-03-24T20:09:58.867Z,44.30
2019-03-24T20:12:27.971Z,43.30
2019-03-24T20:14:57.198Z,41.80
2019-03-24T20:17:26.403Z,41.60
2019-03-24T20:19:55.693Z,40.90
2019-03-24T20:22:25.219Z,40.80
2019-03-24T20:24:54.200Z,40.90
2019-03-24T20:27:25.888Z,39.20
2019-03-24T20:29:55.879Z,38.60
2019-03-24T20:32:24.976Z,38.20
2019-03-24T20:34:53.894Z,37.60
2019-03-24T20:37:22.929Z,37.20
2019-03-24T20:39:52.020Z,37.50
2019-03-24T20:42:21.311Z,36.90
2019-03-24T20:44:50.382Z,36.20
2019-03-24T20:47:19.439Z,35.30
2019-03-24T20:49:48.846Z,36.20
2019-03-24T20:52:18.011Z,36.60
2019-03-24T20:54:48.878Z,36.20
2019-03-24T20:57:18.147Z,35.50
2019-03-24T20:59:47.462Z,36.30
2019-03-24T21:02:16.494Z,36.10
2019-03-24T21:04:45.634Z,35.20
2019-03-24T21:07:14.824Z,35.40
2019-03-24T21:09:46.454Z,35.30
2019-03-24T21:12:14.800Z,35.30
2019-03-24T21:14:44.036Z,34.50
2019-03-24T21:17:12.969Z,33.80
2019-03-24T21:19:42.029Z,33.30
2019-03-24T21:22:12.404Z,33.80
2019-03-24T21:24:41.521Z,33.50
2019-03-24T21:27:10.464Z,32.60
2019-03-24T21:29:39.438Z,32.20
2019-03-24T21:32:08.729Z,31.90
2019-03-24T21:34:37.856Z,31.70
2019-03-24T21:37:08.889Z,31.60
2019-03-24T21:39:38.843Z,31.60
2019-03-24T21:42:08.049Z,31.10
2019-03-24T21:44:37.022Z,31.80
2019-03-24T21:47:06.009Z,30.60
2019-03-24T21:49:35.134Z,30.90
2019-03-24T21:52:04.271Z,31.20
2019-03-24T21:54:33.270Z,31.50
2019-03-24T21:57:02.203Z,30.80
2019-03-24T21:59:31.136Z,31.10
2019-03-24T22:02:00.100Z,30.90
2019-03-24T22:04:29.062Z,30.90
2019-03-24T22:06:58.295Z,30.90
2019-03-24T22:09:28.161Z,30.70
2019-03-24T22:11:57.063Z,30.60
2019-03-24T22:14:26.215Z,30.70
2019-03-24T22:16:55.348Z,30.80
2019-03-24T22:19:24.365Z,31.10
2019-03-24T22:21:53.201Z,31.20
2019-03-24T22:24:22.190Z,31.00
2019-03-24T22:26:51.219Z,31.40
2019-03-24T22:29:20.273Z,31.70
2019-03-24T22:31:49.537Z,31.60
2019-03-24T22:34:18.461Z,31.50
2019-03-24T22:36:47.330Z,32.10
2019-03-24T22:39:16.613Z,32.20
2019-03-24T22:41:45.522Z,34.10
2019-03-24T22:44:14.940Z,34.90
2019-03-24T22:46:50.281Z,34.20
2019-03-24T22:49:19.120Z,35.40
2019-03-24T22:51:48.885Z,36.70
2019-03-24T22:54:17.911Z,36.30
2019-03-24T22:56:46.737Z,36.50
2019-03-24T22:59:15.995Z,36.50
2019-03-24T23:01:44.988Z,38.00
2019-03-24T23:04:14.513Z,38.40
2019-03-24T23:06:43.525Z,39.00
2019-03-24T23:09:12.465Z,37.80
2019-03-24T23:11:41.455Z,37.80
2019-03-24T23:14:10.458Z,37.50
2019-03-24T23:16:39.499Z,37.40
2019-03-24T23:19:08.633Z,37.30
2019-03-24T23:21:40.897Z,37.70
2019-03-24T23:24:15.588Z,37.70
2019-03-24T23:26:43.240Z,37.40
2019-03-24T23:29:12.892Z,37.60
2019-03-24T23:31:43.864Z,38.10
2019-03-24T23:34:13.646Z,38.40
2019-03-24T23:36:43.970Z,38.00
2019-03-24T23:39:18.397Z,37.60
2019-03-24T23:44:51.543Z,39.40
2019-03-24T23:47:29.363Z,39.50
2019-03-24T23:50:05.495Z,38.90
2019-03-24T23:52:37.992Z,39.90
2019-03-24T23:55:08.368Z,43.10
2019-03-24T23:57:37.375Z,39.50
